Kathmandu Airport, Nepal Weather Forecast and Conditions

Posted on by Anurup Pathak

Latest Conditions of Tribhuvan International Airport:-

  • Allowed Flight Category:(MVFR) Marginal Visual Flight Rules
  • 07:20 UTC
  • Mostly Cloudy with Light rain and Thunderstorms
  • Feels Like (Temp) 27 deg C / 80.6 deg F
  • Humidity 70%
  • Cloud Base: 10000 ft
  • Sky: FEW 1000 ft
  • Wind: SE 7 KPH/ 200° 3kt
  • QNH 1012
  • Dew Point 21°C / 69.8 °F
  • Visibility: 7000 m
  • Barometer 1000 mb – Falling Slowly

KATHMANDU INTL A (Metar):-

VNKT 090720Z 20003KT 7000 DZ FEW010 FEW025CB SCT030 BKN100 27/21 Q1012 NOSIG CB TO W AND NW

Forecast Details:-

Day: Cloudy with light rain. Highs around 25°C (77°F). Light wind. Chance of precipitation near 100%. Precipitation amounts between 6.35 and 12.7 mm (one quarter and one half of an inch) expected during the period.

Night: Cloudy with heavy rain. Lows around 20°C (68°F). Light wind. Chance of precipitation near 100%. Precipitation amounts between 38.1 and 50.8 mm (one and one half and two inches) possible.

Source: VNKT Metar / weatherforyou.com / RadarBox24 / Flightradar24 / VNKT STATIONS

 

About the Author

An Aviation Enthusiast, Aviation Photographer. Working with Aviation Nepal and a Proficient Aviation writer. Air-Nav System LLC USA, Country Manager for Nepal. VNKT Spotter !!